TAF and METAR

METAR for General Rivadeneira Airport

SETN 292300Z 27009KT 9999 FEW020 BKN100 28/25 Q1011 A2986
Report created 30. mai 01:00
wind 9 knots from W (270°) visibility > 10km some clouds (~25% cover) at 2000 feet broken clouds (~75% cover) at 10000 feet Temperature 28° with dewpoint at 25° (Humidity 83.83%) Pressure 1011 hPa
No TAF available for General Rivadeneira Airport